createdAt,value
2018-04-30T00:01:50.320Z,99.90
2018-04-30T00:04:18.473Z,99.90
2018-04-30T00:06:46.658Z,99.90
2018-04-30T00:09:14.809Z,99.90
2018-04-30T00:11:42.989Z,99.90
2018-04-30T00:14:11.140Z,99.90
2018-04-30T00:16:39.316Z,99.90
2018-04-30T00:19:07.472Z,99.90
2018-04-30T00:21:35.652Z,99.90
2018-04-30T00:24:03.803Z,99.90
2018-04-30T00:26:31.983Z,99.90
2018-04-30T00:29:00.127Z,99.90
2018-04-30T00:31:28.308Z,99.90
2018-04-30T00:33:56.461Z,99.90
2018-04-30T00:36:24.640Z,99.90
2018-04-30T00:38:52.791Z,99.90
2018-04-30T00:41:20.972Z,99.90
2018-04-30T00:43:49.124Z,99.90
2018-04-30T00:46:18.068Z,99.90
2018-04-30T00:48:46.217Z,99.90
2018-04-30T00:51:14.396Z,99.90
2018-04-30T00:53:42.559Z,99.90
2018-04-30T00:56:10.746Z,99.90
2018-04-30T00:58:38.899Z,99.90
2018-04-30T01:01:07.077Z,99.90
2018-04-30T01:03:35.225Z,99.90
2018-04-30T01:06:03.409Z,99.90
2018-04-30T01:08:31.568Z,99.90
2018-04-30T01:10:59.744Z,99.90
2018-04-30T01:13:27.901Z,99.90
2018-04-30T01:15:56.077Z,99.90
2018-04-30T01:18:24.229Z,99.90
2018-04-30T01:20:52.399Z,99.90
2018-04-30T01:23:20.552Z,99.90
2018-04-30T01:25:48.724Z,99.90
2018-04-30T01:28:17.108Z,99.90
2018-04-30T01:30:45.284Z,99.90
2018-04-30T01:33:13.432Z,99.90
2018-04-30T01:35:41.624Z,99.90
2018-04-30T01:38:09.782Z,99.90
2018-04-30T01:40:38.729Z,99.90
2018-04-30T01:43:06.881Z,99.90
2018-04-30T01:45:35.056Z,99.90
2018-04-30T01:48:03.213Z,99.90
2018-04-30T01:50:31.364Z,99.90
2018-04-30T01:53:00.309Z,99.90
2018-04-30T01:55:28.456Z,99.90
2018-04-30T01:57:56.624Z,99.90
2018-04-30T02:00:24.775Z,99.90
2018-04-30T02:02:53.016Z,99.90
2018-04-30T02:05:21.168Z,99.90
2018-04-30T02:07:49.345Z,99.90
2018-04-30T02:10:17.500Z,99.90
2018-04-30T02:12:45.679Z,99.90
2018-04-30T02:15:13.836Z,99.90
2018-04-30T02:17:42.012Z,99.90
2018-04-30T02:20:10.168Z,99.90
2018-04-30T02:22:38.341Z,99.90
2018-04-30T02:25:06.497Z,99.90
2018-04-30T02:27:34.676Z,99.90
2018-04-30T02:30:02.826Z,99.90
2018-04-30T02:32:31.008Z,99.90
2018-04-30T02:34:59.160Z,99.90
2018-04-30T02:37:27.343Z,99.90
2018-04-30T02:39:55.502Z,99.90
2018-04-30T02:42:23.682Z,99.90
2018-04-30T02:44:51.840Z,99.90
2018-04-30T02:47:20.018Z,99.90
2018-04-30T02:49:48.175Z,99.90
2018-04-30T02:52:16.377Z,99.90
2018-04-30T02:54:44.528Z,99.90
2018-04-30T02:57:12.731Z,99.90
2018-04-30T02:59:40.883Z,99.90
2018-04-30T03:02:09.061Z,99.90
2018-04-30T03:04:37.216Z,99.90
2018-04-30T03:07:05.392Z,99.90
2018-04-30T03:09:33.544Z,99.90
2018-04-30T03:12:01.726Z,99.90
2018-04-30T03:14:30.649Z,99.90
2018-04-30T03:16:58.833Z,99.90
2018-04-30T03:19:26.989Z,99.90
2018-04-30T03:21:55.171Z,99.90
2018-04-30T03:24:23.320Z,99.90
2018-04-30T03:26:51.500Z,99.90
2018-04-30T03:29:19.658Z,99.90
2018-04-30T03:31:47.845Z,99.90
2018-04-30T03:34:15.997Z,99.90
2018-04-30T03:36:44.173Z,99.90
2018-04-30T03:39:12.325Z,99.90
2018-04-30T03:41:40.502Z,99.90
2018-04-30T03:44:08.655Z,99.90
2018-04-30T03:46:36.833Z,99.90
2018-04-30T03:49:04.988Z,99.90
2018-04-30T03:51:33.141Z,99.90
2018-04-30T03:54:01.320Z,99.90
2018-04-30T03:56:29.472Z,99.90
2018-04-30T03:58:57.657Z,99.90
2018-04-30T04:01:37.408Z,99.90
2018-04-30T04:04:18.204Z,99.90
2018-04-30T04:06:52.179Z,99.90
2018-04-30T04:09:20.328Z,99.90
2018-04-30T04:11:48.487Z,99.90
2018-04-30T04:14:16.668Z,99.90
2018-04-30T04:16:44.820Z,99.90
2018-04-30T04:19:13.003Z,99.90
2018-04-30T04:21:41.154Z,99.90
2018-04-30T04:24:09.332Z,99.90
2018-04-30T04:26:37.499Z,99.90
2018-04-30T04:29:05.675Z,99.90
2018-04-30T04:31:33.835Z,99.90
2018-04-30T04:34:02.021Z,99.90
2018-04-30T04:36:30.173Z,99.90
2018-04-30T04:38:58.344Z,99.90
2018-04-30T04:41:26.496Z,99.90
2018-04-30T04:43:54.673Z,99.90
2018-04-30T04:46:22.833Z,99.90
2018-04-30T04:48:51.776Z,99.90
2018-04-30T04:51:19.929Z,99.90
2018-04-30T04:53:48.103Z,99.90
2018-04-30T04:56:16.264Z,99.90
2018-04-30T04:58:44.441Z,99.90
2018-04-30T05:01:12.592Z,99.90
2018-04-30T05:03:40.765Z,99.90
2018-04-30T05:06:08.920Z,99.90
2018-04-30T05:08:37.095Z,99.90
2018-04-30T05:11:05.239Z,99.90
2018-04-30T05:13:33.417Z,99.90
2018-04-30T05:16:01.572Z,99.90
2018-04-30T05:18:29.763Z,99.90
2018-04-30T05:20:57.944Z,99.90
2018-04-30T05:23:26.119Z,99.90
2018-04-30T05:25:54.274Z,99.90
2018-04-30T05:28:22.512Z,99.90
2018-04-30T05:30:51.432Z,99.90
2018-04-30T05:33:19.608Z,99.90
2018-04-30T05:35:47.764Z,99.90
2018-04-30T05:38:15.941Z,99.90
2018-04-30T05:40:44.091Z,99.90
2018-04-30T05:43:13.042Z,99.90
2018-04-30T05:45:41.188Z,99.90
2018-04-30T05:48:09.391Z,99.90
2018-04-30T05:50:37.548Z,99.90
2018-04-30T05:53:05.773Z,99.90
2018-04-30T05:55:33.940Z,99.90
2018-04-30T05:58:02.124Z,99.90
2018-04-30T06:00:30.301Z,99.90
2018-04-30T06:02:58.552Z,99.90
2018-04-30T06:05:26.712Z,99.90
2018-04-30T06:07:54.920Z,99.90
2018-04-30T06:10:23.093Z,99.90
2018-04-30T06:12:51.243Z,99.90
2018-04-30T06:15:19.424Z,99.90
2018-04-30T06:17:47.575Z,99.90
2018-04-30T06:20:15.750Z,99.90
2018-04-30T06:22:43.904Z,99.90
2018-04-30T06:25:12.085Z,99.90
2018-04-30T06:27:40.241Z,99.90
2018-04-30T06:30:08.416Z,99.90
2018-04-30T06:32:36.596Z,99.90
2018-04-30T06:35:04.786Z,99.90
2018-04-30T06:37:32.936Z,99.90
2018-04-30T06:40:01.112Z,99.90
2018-04-30T06:42:29.322Z,99.90
2018-04-30T06:44:57.476Z,99.90
2018-04-30T06:47:25.629Z,99.90
2018-04-30T06:49:53.812Z,99.90
2018-04-30T06:52:21.964Z,99.90
2018-04-30T06:54:50.189Z,99.90
2018-04-30T06:57:18.356Z,99.90
2018-04-30T06:59:46.535Z,99.90
2018-04-30T07:02:14.705Z,99.90
2018-04-30T07:04:42.891Z,99.90
2018-04-30T07:07:11.058Z,99.90
2018-04-30T07:09:39.362Z,99.90
2018-04-30T07:12:08.193Z,99.90
2018-04-30T07:14:36.379Z,99.90
2018-04-30T07:17:04.546Z,99.90
2018-04-30T07:19:32.748Z,99.90
2018-04-30T07:22:00.913Z,99.90
2018-04-30T07:24:29.096Z,99.90
2018-04-30T07:26:58.036Z,99.90
2018-04-30T07:29:26.228Z,99.90
2018-04-30T07:31:54.530Z,99.90
2018-04-30T07:34:22.723Z,99.90
2018-04-30T07:36:50.895Z,99.90
2018-04-30T07:39:19.079Z,99.90
2018-04-30T07:41:47.592Z,99.90
2018-04-30T07:44:16.116Z,99.90
2018-04-30T07:46:44.301Z,99.90
2018-04-30T07:49:12.563Z,99.90
2018-04-30T07:51:40.680Z,99.30
2018-04-30T07:54:08.855Z,98.90
2018-04-30T07:56:37.170Z,97.80
2018-04-30T07:59:05.361Z,98.80
2018-04-30T08:01:33.519Z,97.60
2018-04-30T08:04:01.706Z,98.30
2018-04-30T08:06:29.925Z,98.50
2018-04-30T08:08:58.872Z,97.10
2018-04-30T08:11:27.061Z,97.10
2018-04-30T08:13:55.228Z,97.70
2018-04-30T08:16:23.430Z,96.20
2018-04-30T08:18:51.593Z,96.40
2018-04-30T08:21:19.868Z,96.70
2018-04-30T08:23:48.090Z,96.80
2018-04-30T08:26:16.517Z,97.20
2018-04-30T08:28:44.718Z,97.30
2018-04-30T08:31:12.925Z,97.50
2018-04-30T08:33:41.134Z,96.30
2018-04-30T08:36:09.297Z,97.00
2018-04-30T08:38:37.447Z,95.70
2018-04-30T08:41:05.627Z,95.20
2018-04-30T08:43:33.789Z,96.60
2018-04-30T08:46:01.981Z,96.10
2018-04-30T08:48:30.139Z,96.00
2018-04-30T08:50:58.320Z,97.20
2018-04-30T08:53:26.487Z,96.60
2018-04-30T08:55:54.699Z,97.10
2018-04-30T08:58:22.881Z,97.70
2018-04-30T09:00:51.052Z,98.30
2018-04-30T09:03:19.208Z,99.60
2018-04-30T09:05:47.394Z,99.90
2018-04-30T09:08:15.556Z,99.90
2018-04-30T09:10:43.768Z,99.90
2018-04-30T09:13:11.933Z,99.90
2018-04-30T09:15:40.113Z,99.90
2018-04-30T09:18:08.273Z,99.80
2018-04-30T09:20:36.456Z,98.90
2018-04-30T09:23:04.612Z,99.00
2018-04-30T09:25:32.791Z,99.60
2018-04-30T09:28:00.964Z,99.00
2018-04-30T09:30:29.160Z,98.60
2018-04-30T09:32:57.319Z,99.40
2018-04-30T09:35:25.496Z,99.90
2018-04-30T09:37:53.655Z,99.90
2018-04-30T09:40:21.845Z,99.90
2018-04-30T09:42:50.008Z,99.80
2018-04-30T09:45:18.188Z,99.90
2018-04-30T09:47:46.349Z,99.90
2018-04-30T09:50:14.537Z,99.90
2018-04-30T09:52:42.692Z,99.90
2018-04-30T09:55:10.880Z,99.90
2018-04-30T09:57:39.081Z,99.90
2018-04-30T10:00:07.231Z,99.90
2018-04-30T10:02:35.387Z,99.90
2018-04-30T10:05:03.601Z,99.90
2018-04-30T10:07:31.756Z,98.90
2018-04-30T10:09:59.950Z,99.90
2018-04-30T10:12:28.108Z,99.70
2018-04-30T10:14:56.268Z,99.90
2018-04-30T10:17:24.448Z,99.30
2018-04-30T10:19:52.600Z,99.50
2018-04-30T10:22:20.783Z,99.90
2018-04-30T10:24:48.936Z,99.40
2018-04-30T10:27:17.117Z,98.90
2018-04-30T10:29:45.280Z,99.90
2018-04-30T10:32:13.457Z,99.40
2018-04-30T10:34:41.621Z,99.90
2018-04-30T10:37:09.801Z,99.90
2018-04-30T10:39:37.963Z,99.90
2018-04-30T10:42:06.908Z,99.00
2018-04-30T10:44:35.073Z,98.90
2018-04-30T10:47:03.251Z,98.90
2018-04-30T10:49:31.420Z,98.90
2018-04-30T10:51:59.656Z,97.30
2018-04-30T10:54:27.809Z,97.50
2018-04-30T10:56:56.748Z,95.50
2018-04-30T10:59:24.905Z,95.50
2018-04-30T11:01:53.093Z,96.30
2018-04-30T11:04:21.257Z,95.50
2018-04-30T11:06:49.441Z,95.60
2018-04-30T11:09:17.596Z,95.60
2018-04-30T11:11:45.776Z,95.50
2018-04-30T11:14:13.934Z,95.70
2018-04-30T11:16:42.201Z,95.80
2018-04-30T11:19:11.124Z,96.70
2018-04-30T11:21:39.305Z,96.70
2018-04-30T11:24:07.460Z,96.50
2018-04-30T11:26:35.642Z,97.30
2018-04-30T11:29:03.796Z,97.00
2018-04-30T11:31:31.978Z,97.20
2018-04-30T11:34:00.208Z,97.40
2018-04-30T11:36:28.348Z,97.40
2018-04-30T11:38:57.295Z,97.80
2018-04-30T11:41:26.247Z,98.30
2018-04-30T11:43:54.421Z,98.30
2018-04-30T11:46:22.632Z,98.80
2018-04-30T11:48:51.567Z,99.90
2018-04-30T11:51:19.756Z,99.80
2018-04-30T11:53:47.924Z,99.50
2018-04-30T11:56:16.119Z,99.60
2018-04-30T11:58:44.366Z,99.90
2018-04-30T12:01:12.549Z,99.90
2018-04-30T12:03:41.535Z,99.90
2018-04-30T12:06:09.740Z,99.90
2018-04-30T12:08:37.909Z,99.90
2018-04-30T12:11:06.148Z,99.90
2018-04-30T12:13:34.297Z,99.90
2018-04-30T12:16:02.493Z,99.90
2018-04-30T12:18:30.719Z,99.90
2018-04-30T12:20:59.668Z,99.90
2018-04-30T12:23:27.864Z,99.90
2018-04-30T12:25:56.024Z,99.90
2018-04-30T12:28:24.211Z,99.90
2018-04-30T12:30:52.397Z,99.90
2018-04-30T12:33:20.584Z,99.90
2018-04-30T12:35:49.516Z,99.90
2018-04-30T12:38:17.707Z,99.90
2018-04-30T12:40:45.870Z,99.70
2018-04-30T12:43:14.067Z,99.90
2018-04-30T12:45:42.251Z,99.70
2018-04-30T12:48:10.452Z,99.60
2018-04-30T12:50:38.616Z,99.90
2018-04-30T12:53:06.804Z,99.90
2018-04-30T12:55:34.967Z,99.90
2018-04-30T12:58:03.165Z,99.90
2018-04-30T13:00:32.100Z,99.90
2018-04-30T13:03:00.312Z,99.90
2018-04-30T13:05:28.498Z,99.90
2018-04-30T13:07:56.715Z,99.90
2018-04-30T13:10:24.920Z,99.90
2018-04-30T13:12:53.124Z,99.90
2018-04-30T13:15:21.381Z,99.90
2018-04-30T13:17:49.601Z,99.90
2018-04-30T13:20:17.756Z,99.90
2018-04-30T13:22:45.943Z,99.90
2018-04-30T13:25:14.161Z,99.90
2018-04-30T13:27:42.354Z,99.90
2018-04-30T13:30:10.513Z,99.90
2018-04-30T13:32:38.714Z,99.90
2018-04-30T13:35:06.896Z,99.90
2018-04-30T13:37:35.097Z,99.90
2018-04-30T13:40:03.268Z,99.90
2018-04-30T13:42:31.496Z,99.90
2018-04-30T13:44:59.657Z,99.90
2018-04-30T13:47:27.845Z,99.90
2018-04-30T13:49:56.012Z,99.90
2018-04-30T13:52:24.199Z,99.90
2018-04-30T13:54:52.354Z,99.90
2018-04-30T13:57:20.536Z,99.90
2018-04-30T13:59:48.697Z,99.90
2018-04-30T14:02:16.927Z,99.90
2018-04-30T14:04:45.090Z,99.90
2018-04-30T14:07:14.103Z,99.90
2018-04-30T14:09:42.460Z,99.90
2018-04-30T14:12:11.445Z,99.90
2018-04-30T14:14:39.628Z,99.90
2018-04-30T14:17:07.969Z,99.90
2018-04-30T14:19:36.261Z,99.90
2018-04-30T14:22:04.449Z,99.90
2018-04-30T14:24:32.737Z,99.90
2018-04-30T14:27:01.706Z,99.90
2018-04-30T14:29:29.890Z,99.90
2018-04-30T14:31:58.084Z,99.90
2018-04-30T14:34:26.319Z,99.90
2018-04-30T14:36:54.520Z,99.90
2018-04-30T14:39:22.752Z,99.90
2018-04-30T14:41:50.947Z,99.90
2018-04-30T14:44:19.178Z,99.90
2018-04-30T14:46:47.400Z,99.90
2018-04-30T14:49:15.599Z,99.90
2018-04-30T14:51:44.560Z,99.90
2018-04-30T14:54:12.873Z,99.90
2018-04-30T14:56:41.123Z,99.90
2018-04-30T14:59:09.264Z,99.90
2018-04-30T15:01:37.490Z,99.90
2018-04-30T15:04:06.591Z,99.90
2018-04-30T15:06:34.765Z,99.90
2018-04-30T15:09:02.946Z,99.90
2018-04-30T15:11:31.140Z,99.90
2018-04-30T15:13:59.323Z,99.90
2018-04-30T15:16:27.500Z,99.90
2018-04-30T15:18:55.729Z,99.90
2018-04-30T15:21:23.888Z,99.90
2018-04-30T15:23:52.071Z,99.90
2018-04-30T15:26:20.233Z,99.90
2018-04-30T15:28:48.412Z,99.90
2018-04-30T15:31:16.581Z,99.90
2018-04-30T15:33:44.767Z,99.90
2018-04-30T15:36:12.931Z,99.90
2018-04-30T15:38:41.107Z,99.90
2018-04-30T15:41:09.284Z,99.90
2018-04-30T15:43:37.464Z,99.90
2018-04-30T15:46:06.385Z,99.90
2018-04-30T15:48:34.568Z,99.90
2018-04-30T15:51:02.735Z,99.90
2018-04-30T15:53:30.929Z,99.90
2018-04-30T15:55:59.095Z,99.90
2018-04-30T15:58:27.276Z,99.90
2018-04-30T16:00:55.522Z,99.90
2018-04-30T16:03:23.728Z,99.90
2018-04-30T16:05:51.900Z,99.90
2018-04-30T16:08:20.080Z,99.90
2018-04-30T16:10:48.247Z,99.90
2018-04-30T16:13:16.498Z,99.90
2018-04-30T16:15:44.656Z,99.90
2018-04-30T16:18:13.584Z,99.90
2018-04-30T16:20:41.819Z,99.90
2018-04-30T16:23:10.009Z,99.90
2018-04-30T16:25:38.196Z,99.90
2018-04-30T16:28:06.360Z,99.90
2018-04-30T16:30:34.544Z,99.90
2018-04-30T16:33:02.702Z,99.90
2018-04-30T16:35:30.896Z,99.90
2018-04-30T16:37:59.050Z,99.90
2018-04-30T16:40:27.993Z,99.90
2018-04-30T16:42:56.162Z,99.90
2018-04-30T16:45:24.337Z,99.90
2018-04-30T16:47:52.509Z,99.90
2018-04-30T16:50:20.694Z,99.90
2018-04-30T16:52:48.873Z,99.90
2018-04-30T16:55:17.064Z,99.90
2018-04-30T16:57:45.269Z,99.90
2018-04-30T17:00:13.460Z,99.90
2018-04-30T17:02:41.620Z,99.90
2018-04-30T17:05:09.815Z,99.90
2018-04-30T17:07:37.971Z,99.90
2018-04-30T17:10:06.208Z,99.90
2018-04-30T17:12:34.361Z,99.90
2018-04-30T17:15:02.552Z,99.90
2018-04-30T17:17:30.740Z,99.90
2018-04-30T17:19:58.943Z,99.90
2018-04-30T17:22:27.107Z,99.90
2018-04-30T17:24:55.285Z,99.90
2018-04-30T17:27:24.255Z,99.90
2018-04-30T17:29:52.968Z,99.90
2018-04-30T17:32:21.140Z,99.90
2018-04-30T17:34:49.327Z,99.90
2018-04-30T17:37:17.509Z,99.90
2018-04-30T17:39:45.697Z,99.90
2018-04-30T17:42:13.858Z,99.90
2018-04-30T17:44:42.034Z,99.90
2018-04-30T17:47:10.295Z,99.90
2018-04-30T17:49:38.478Z,99.90
2018-04-30T17:52:06.773Z,99.90
2018-04-30T17:54:34.965Z,99.90
2018-04-30T17:57:03.125Z,99.90
2018-04-30T17:59:31.313Z,99.90
2018-04-30T18:01:59.469Z,99.90
2018-04-30T18:04:27.653Z,99.90
2018-04-30T18:06:55.904Z,99.90
2018-04-30T18:09:24.052Z,99.90
2018-04-30T18:11:52.217Z,99.90
2018-04-30T18:14:21.196Z,99.90
2018-04-30T18:16:50.118Z,99.90
2018-04-30T18:19:18.295Z,99.90
2018-04-30T18:21:46.477Z,99.90
2018-04-30T18:24:14.657Z,99.90
2018-04-30T18:26:42.844Z,99.90
2018-04-30T18:29:11.009Z,99.90
2018-04-30T18:31:39.188Z,99.90
2018-04-30T18:34:07.340Z,99.90
2018-04-30T18:36:35.521Z,99.90
2018-04-30T18:39:03.681Z,99.90
2018-04-30T18:41:31.852Z,99.90
2018-04-30T18:44:00.010Z,99.90
2018-04-30T18:46:28.232Z,99.90
2018-04-30T18:48:56.382Z,99.90
2018-04-30T18:51:24.565Z,99.90
2018-04-30T18:53:52.744Z,99.90
2018-04-30T18:56:21.055Z,99.90
2018-04-30T18:58:49.225Z,99.90
2018-04-30T19:01:17.977Z,99.90
2018-04-30T19:03:47.089Z,99.90
2018-04-30T19:06:15.330Z,99.90
2018-04-30T19:08:43.491Z,99.90
2018-04-30T19:11:11.712Z,99.90
2018-04-30T19:13:39.910Z,99.90
2018-04-30T19:16:08.088Z,99.90
2018-04-30T19:18:36.270Z,99.90
2018-04-30T19:21:04.451Z,99.90
2018-04-30T19:23:32.604Z,99.90
2018-04-30T19:26:00.784Z,99.90
2018-04-30T19:28:28.945Z,99.90
2018-04-30T19:30:57.144Z,99.90
2018-04-30T19:33:25.310Z,99.90
2018-04-30T19:35:53.488Z,99.90
2018-04-30T19:38:21.642Z,99.90
2018-04-30T19:40:49.815Z,99.90
2018-04-30T19:43:17.971Z,99.90
2018-04-30T19:45:46.137Z,99.90
2018-04-30T19:48:14.297Z,99.90
2018-04-30T19:50:42.482Z,99.90
2018-04-30T19:53:10.646Z,99.90
2018-04-30T19:55:38.840Z,99.90
2018-04-30T19:58:07.003Z,99.90
2018-04-30T20:00:35.202Z,99.90
2018-04-30T20:03:03.381Z,99.90
2018-04-30T20:05:31.654Z,99.90
2018-04-30T20:07:59.812Z,99.90
2018-04-30T20:10:28.058Z,99.90
2018-04-30T20:12:56.226Z,99.90
2018-04-30T20:15:24.411Z,99.90
2018-04-30T20:17:52.589Z,99.90
2018-04-30T20:20:20.839Z,99.90
2018-04-30T20:22:49.047Z,99.90
2018-04-30T20:25:17.208Z,99.90
2018-04-30T20:27:45.395Z,99.90
2018-04-30T20:30:13.562Z,99.90
2018-04-30T20:32:41.817Z,99.90
2018-04-30T20:35:10.012Z,99.90
2018-04-30T20:37:38.205Z,99.90
2018-04-30T20:40:06.368Z,99.90
2018-04-30T20:42:34.552Z,99.90
2018-04-30T20:45:02.691Z,99.90
2018-04-30T20:47:30.873Z,99.90
2018-04-30T20:49:59.029Z,99.90
2018-04-30T20:52:27.215Z,99.90
2018-04-30T20:54:55.373Z,99.90
2018-04-30T20:57:24.326Z,99.90
2018-04-30T20:59:52.473Z,99.90
2018-04-30T21:02:20.658Z,99.90
2018-04-30T21:04:48.802Z,99.90
2018-04-30T21:07:16.981Z,99.90
2018-04-30T21:09:45.129Z,99.90
2018-04-30T21:12:13.339Z,99.90
2018-04-30T21:14:41.533Z,99.90
2018-04-30T21:17:09.712Z,99.90
2018-04-30T21:19:37.867Z,99.90
2018-04-30T21:22:06.044Z,99.90
2018-04-30T21:24:34.271Z,99.90
2018-04-30T21:27:02.395Z,99.90
2018-04-30T21:29:30.552Z,99.90
2018-04-30T21:31:58.730Z,99.90
2018-04-30T21:34:26.885Z,99.90
2018-04-30T21:36:55.072Z,99.90
2018-04-30T21:39:23.273Z,99.90
2018-04-30T21:41:51.465Z,99.90
2018-04-30T21:44:19.621Z,99.90
2018-04-30T21:46:47.792Z,99.90
2018-04-30T21:49:15.948Z,99.90
2018-04-30T21:51:44.145Z,99.90
2018-04-30T21:54:12.325Z,99.90
2018-04-30T21:56:40.501Z,99.90
2018-04-30T21:59:08.667Z,99.90
2018-04-30T22:01:36.876Z,99.90
2018-04-30T22:04:05.028Z,99.90
2018-04-30T22:06:33.200Z,99.90
2018-04-30T22:09:01.348Z,99.90
2018-04-30T22:11:29.500Z,99.90
2018-04-30T22:13:57.678Z,99.90
2018-04-30T22:16:25.905Z,99.90
2018-04-30T22:18:54.085Z,99.90
2018-04-30T22:21:22.230Z,99.90
2018-04-30T22:23:50.417Z,99.90
2018-04-30T22:26:18.585Z,99.90
2018-04-30T22:28:46.761Z,99.90
2018-04-30T22:31:14.991Z,99.90
2018-04-30T22:33:43.108Z,99.90
2018-04-30T22:36:11.299Z,99.90
2018-04-30T22:38:39.579Z,99.90
2018-04-30T22:41:07.761Z,99.90
2018-04-30T22:43:35.958Z,99.90
2018-04-30T22:46:04.117Z,99.90
2018-04-30T22:48:33.051Z,99.90
2018-04-30T22:51:01.200Z,99.90
2018-04-30T22:53:29.372Z,99.90
2018-04-30T22:55:57.528Z,99.90
2018-04-30T22:58:25.704Z,99.90
2018-04-30T23:00:54.621Z,99.90
2018-04-30T23:03:22.810Z,99.90
2018-04-30T23:05:50.972Z,99.90
2018-04-30T23:08:19.137Z,99.90
2018-04-30T23:10:47.289Z,99.90
2018-04-30T23:13:16.243Z,99.90
2018-04-30T23:15:44.394Z,99.90
2018-04-30T23:18:12.585Z,99.90
2018-04-30T23:20:40.743Z,99.90
2018-04-30T23:23:08.920Z,99.90
2018-04-30T23:25:37.074Z,99.90
2018-04-30T23:28:05.253Z,99.90
2018-04-30T23:30:33.398Z,99.90
2018-04-30T23:33:02.336Z,99.90
2018-04-30T23:35:30.476Z,99.90
2018-04-30T23:37:59.434Z,99.90
2018-04-30T23:40:27.591Z,99.90
2018-04-30T23:42:55.753Z,99.90
2018-04-30T23:45:23.938Z,99.90
2018-04-30T23:47:52.085Z,99.90
2018-04-30T23:50:20.274Z,99.90
2018-04-30T23:52:48.426Z,99.90
2018-04-30T23:55:16.606Z,99.90
2018-04-30T23:57:44.761Z,99.90
